sensor_id;sensor_type;location;lat;lon;timestamp;P1;durP1;ratioP1;P2;durP2;ratioP2
71667;SDS011;59504;54.806;9.640;2023-03-14T00:00:29;32.40;;;5.68;;
71667;SDS011;59504;54.806;9.640;2023-03-14T00:02:30;34.85;;;4.72;;
71667;SDS011;59504;54.806;9.640;2023-03-14T00:04:30;31.17;;;4.57;;
71667;SDS011;59504;54.806;9.640;2023-03-14T00:06:31;30.55;;;4.50;;
71667;SDS011;59504;54.806;9.640;2023-03-14T00:08:32;41.15;;;5.05;;
71667;SDS011;59504;54.806;9.640;2023-03-14T00:10:38;37.30;;;4.75;;
71667;SDS011;59504;54.806;9.640;2023-03-14T00:12:40;27.25;;;4.90;;
71667;SDS011;59504;54.806;9.640;2023-03-14T00:14:42;30.88;;;5.35;;
71667;SDS011;59504;54.806;9.640;2023-03-14T00:16:46;27.83;;;4.57;;
71667;SDS011;59504;54.806;9.640;2023-03-14T00:20:48;51.28;;;6.10;;
71667;SDS011;59504;54.806;9.640;2023-03-14T00:22:48;35.40;;;5.20;;
71667;SDS011;59504;54.806;9.640;2023-03-14T00:24:50;32.42;;;4.95;;
71667;SDS011;59504;54.806;9.640;2023-03-14T00:26:51;34.70;;;5.00;;
71667;SDS011;59504;54.806;9.640;2023-03-14T00:28:52;36.92;;;4.70;;
71667;SDS011;59504;54.806;9.640;2023-03-14T00:30:56;37.30;;;5.53;;
71667;SDS011;59504;54.806;9.640;2023-03-14T00:33:03;33.83;;;4.85;;
71667;SDS011;59504;54.806;9.640;2023-03-14T00:35:04;35.13;;;5.53;;
71667;SDS011;59504;54.806;9.640;2023-03-14T00:37:07;41.03;;;5.63;;
71667;SDS011;59504;54.806;9.640;2023-03-14T00:39:07;35.70;;;5.70;;
71667;SDS011;59504;54.806;9.640;2023-03-14T00:41:12;31.58;;;4.35;;
71667;SDS011;59504;54.806;9.640;2023-03-14T00:45:51;40.85;;;6.05;;
71667;SDS011;59504;54.806;9.640;2023-03-14T00:47:55;33.20;;;4.65;;
71667;SDS011;59504;54.806;9.640;2023-03-14T00:49:56;43.55;;;5.45;;
71667;SDS011;59504;54.806;9.640;2023-03-14T00:51:57;34.72;;;4.55;;
71667;SDS011;59504;54.806;9.640;2023-03-14T00:53:58;39.20;;;5.90;;
71667;SDS011;59504;54.806;9.640;2023-03-14T00:56:02;31.97;;;4.60;;
71667;SDS011;59504;54.806;9.640;2023-03-14T00:58:08;37.15;;;5.00;;
71667;SDS011;59504;54.806;9.640;2023-03-14T01:00:10;33.80;;;4.55;;
71667;SDS011;59504;54.806;9.640;2023-03-14T01:02:13;34.03;;;4.95;;
71667;SDS011;59504;54.806;9.640;2023-03-14T01:04:14;34.40;;;4.75;;
71667;SDS011;59504;54.806;9.640;2023-03-14T01:06:34;35.13;;;4.95;;
71667;SDS011;59504;54.806;9.640;2023-03-14T01:08:57;34.72;;;5.43;;
71667;SDS011;59504;54.806;9.640;2023-03-14T01:11:23;38.88;;;5.20;;
71667;SDS011;59504;54.806;9.640;2023-03-14T02:34:22;31.70;;;4.68;;
71667;SDS011;59504;54.806;9.640;2023-03-14T02:36:44;33.28;;;4.50;;
71667;SDS011;59504;54.806;9.640;2023-03-14T02:39:16;36.47;;;4.43;;
71667;SDS011;59504;54.806;9.640;2023-03-14T02:41:58;40.80;;;4.95;;
71667;SDS011;59504;54.806;9.640;2023-03-14T02:44:02;30.58;;;3.80;;
71667;SDS011;59504;54.806;9.640;2023-03-14T02:46:22;29.73;;;4.90;;
71667;SDS011;59504;54.806;9.640;2023-03-14T02:48:48;39.63;;;5.28;;
71667;SDS011;59504;54.806;9.640;2023-03-14T02:51:16;30.10;;;4.05;;
71667;SDS011;59504;54.806;9.640;2023-03-14T02:53:37;30.05;;;4.15;;
71667;SDS011;59504;54.806;9.640;2023-03-14T02:55:58;29.33;;;3.80;;
71667;SDS011;59504;54.806;9.640;2023-03-14T02:58:19;30.75;;;4.10;;
71667;SDS011;59504;54.806;9.640;2023-03-14T03:00:40;25.08;;;3.65;;
71667;SDS011;59504;54.806;9.640;2023-03-14T03:03:01;37.17;;;3.90;;
71667;SDS011;59504;54.806;9.640;2023-03-14T03:05:22;27.13;;;4.10;;
71667;SDS011;59504;54.806;9.640;2023-03-14T03:07:43;31.17;;;3.83;;
71667;SDS011;59504;54.806;9.640;2023-03-14T03:10:04;29.38;;;4.35;;
71667;SDS011;59504;54.806;9.640;2023-03-14T03:12:05;28.92;;;3.83;;
71667;SDS011;59504;54.806;9.640;2023-03-14T03:14:06;24.67;;;4.22;;
71667;SDS011;59504;54.806;9.640;2023-03-14T03:16:07;24.55;;;4.05;;
71667;SDS011;59504;54.806;9.640;2023-03-14T03:18:08;24.63;;;4.40;;
71667;SDS011;59504;54.806;9.640;2023-03-14T03:20:09;22.02;;;3.20;;
71667;SDS011;59504;54.806;9.640;2023-03-14T03:22:13;28.38;;;4.10;;
71667;SDS011;59504;54.806;9.640;2023-03-14T03:24:17;27.90;;;4.13;;
71667;SDS011;59504;54.806;9.640;2023-03-14T03:26:17;34.05;;;4.03;;
71667;SDS011;59504;54.806;9.640;2023-03-14T03:28:19;34.28;;;4.40;;
71667;SDS011;59504;54.806;9.640;2023-03-14T03:30:20;29.15;;;4.43;;
71667;SDS011;59504;54.806;9.640;2023-03-14T03:32:22;22.23;;;4.07;;
71667;SDS011;59504;54.806;9.640;2023-03-14T03:34:22;30.25;;;4.10;;
71667;SDS011;59504;54.806;9.640;2023-03-14T03:36:24;25.73;;;4.50;;
71667;SDS011;59504;54.806;9.640;2023-03-14T03:38:28;29.05;;;4.03;;
71667;SDS011;59504;54.806;9.640;2023-03-14T03:40:28;29.38;;;3.90;;
71667;SDS011;59504;54.806;9.640;2023-03-14T03:42:29;29.08;;;4.57;;
71667;SDS011;59504;54.806;9.640;2023-03-14T03:44:30;26.38;;;4.05;;
71667;SDS011;59504;54.806;9.640;2023-03-14T03:46:42;23.90;;;3.28;;
71667;SDS011;59504;54.806;9.640;2023-03-14T03:49:03;28.98;;;4.03;;
71667;SDS011;59504;54.806;9.640;2023-03-14T03:51:04;23.38;;;3.85;;
71667;SDS011;59504;54.806;9.640;2023-03-14T03:53:25;24.33;;;4.13;;
71667;SDS011;59504;54.806;9.640;2023-03-14T03:55:46;23.52;;;4.00;;
71667;SDS011;59504;54.806;9.640;2023-03-14T03:58:07;34.45;;;4.38;;
71667;SDS011;59504;54.806;9.640;2023-03-14T04:00:28;27.40;;;3.70;;
71667;SDS011;59504;54.806;9.640;2023-03-14T04:02:48;24.95;;;3.83;;
71667;SDS011;59504;54.806;9.640;2023-03-14T04:05:09;22.48;;;3.90;;
71667;SDS011;59504;54.806;9.640;2023-03-14T04:07:33;25.48;;;3.83;;
71667;SDS011;59504;54.806;9.640;2023-03-14T04:09:53;26.75;;;3.65;;
71667;SDS011;59504;54.806;9.640;2023-03-14T04:12:14;20.58;;;3.15;;
71667;SDS011;59504;54.806;9.640;2023-03-14T04:14:35;17.77;;;3.88;;
71667;SDS011;59504;54.806;9.640;2023-03-14T04:16:55;19.05;;;3.30;;
71667;SDS011;59504;54.806;9.640;2023-03-14T04:19:16;25.83;;;3.53;;
71667;SDS011;59504;54.806;9.640;2023-03-14T04:21:37;15.40;;;2.90;;
71667;SDS011;59504;54.806;9.640;2023-03-14T04:23:48;17.13;;;2.60;;
71667;SDS011;59504;54.806;9.640;2023-03-14T04:25:49;27.45;;;3.53;;
71667;SDS011;59504;54.806;9.640;2023-03-14T04:27:50;22.95;;;3.08;;
71667;SDS011;59504;54.806;9.640;2023-03-14T04:29:51;20.67;;;3.00;;
71667;SDS011;59504;54.806;9.640;2023-03-14T04:31:51;18.33;;;3.08;;
71667;SDS011;59504;54.806;9.640;2023-03-14T04:33:55;24.75;;;3.35;;
71667;SDS011;59504;54.806;9.640;2023-03-14T04:35:55;32.72;;;3.80;;
71667;SDS011;59504;54.806;9.640;2023-03-14T04:37:56;33.38;;;3.95;;
71667;SDS011;59504;54.806;9.640;2023-03-14T04:40:00;23.05;;;3.42;;
71667;SDS011;59504;54.806;9.640;2023-03-14T04:42:00;21.73;;;3.17;;
71667;SDS011;59504;54.806;9.640;2023-03-14T04:47:12;15.85;;;2.70;;
71667;SDS011;59504;54.806;9.640;2023-03-14T04:49:12;22.30;;;3.30;;
71667;SDS011;59504;54.806;9.640;2023-03-14T04:51:15;21.65;;;4.20;;
71667;SDS011;59504;54.806;9.640;2023-03-14T04:53:17;24.02;;;4.00;;
71667;SDS011;59504;54.806;9.640;2023-03-14T04:55:18;25.90;;;3.40;;
71667;SDS011;59504;54.806;9.640;2023-03-14T04:57:19;17.50;;;3.33;;
71667;SDS011;59504;54.806;9.640;2023-03-14T04:59:20;16.63;;;2.90;;
71667;SDS011;59504;54.806;9.640;2023-03-14T05:01:20;22.30;;;3.28;;
71667;SDS011;59504;54.806;9.640;2023-03-14T05:03:24;21.13;;;3.20;;
71667;SDS011;59504;54.806;9.640;2023-03-14T05:05:45;22.17;;;3.67;;
71667;SDS011;59504;54.806;9.640;2023-03-14T05:08:06;21.67;;;3.50;;
71667;SDS011;59504;54.806;9.640;2023-03-14T05:10:26;22.55;;;3.72;;
71667;SDS011;59504;54.806;9.640;2023-03-14T05:12:47;20.63;;;3.40;;
71667;SDS011;59504;54.806;9.640;2023-03-14T05:14:59;15.98;;;3.35;;
71667;SDS011;59504;54.806;9.640;2023-03-14T05:17:20;24.00;;;3.55;;
71667;SDS011;59504;54.806;9.640;2023-03-14T05:19:21;29.65;;;3.67;;
71667;SDS011;59504;54.806;9.640;2023-03-14T05:21:48;20.95;;;3.50;;
71667;SDS011;59504;54.806;9.640;2023-03-14T05:24:09;26.00;;;3.95;;
71667;SDS011;59504;54.806;9.640;2023-03-14T05:26:31;25.20;;;3.22;;
71667;SDS011;59504;54.806;9.640;2023-03-14T05:28:52;20.40;;;3.80;;
71667;SDS011;59504;54.806;9.640;2023-03-14T05:31:13;25.13;;;3.60;;
71667;SDS011;59504;54.806;9.640;2023-03-14T05:33:36;19.70;;;3.15;;
71667;SDS011;59504;54.806;9.640;2023-03-14T05:35:59;16.95;;;3.47;;
71667;SDS011;59504;54.806;9.640;2023-03-14T05:38:26;26.70;;;4.15;;
71667;SDS011;59504;54.806;9.640;2023-03-14T05:40:27;20.38;;;3.25;;
71667;SDS011;59504;54.806;9.640;2023-03-14T05:42:27;20.15;;;3.25;;
71667;SDS011;59504;54.806;9.640;2023-03-14T05:44:28;27.23;;;3.58;;
71667;SDS011;59504;54.806;9.640;2023-03-14T05:46:29;23.20;;;4.75;;
71667;SDS011;59504;54.806;9.640;2023-03-14T05:48:33;19.42;;;3.30;;
71667;SDS011;59504;54.806;9.640;2023-03-14T05:50:34;22.00;;;3.30;;
71667;SDS011;59504;54.806;9.640;2023-03-14T05:52:34;18.63;;;3.38;;
71667;SDS011;59504;54.806;9.640;2023-03-14T05:54:35;17.33;;;3.22;;
71667;SDS011;59504;54.806;9.640;2023-03-14T05:56:36;18.10;;;2.78;;
71667;SDS011;59504;54.806;9.640;2023-03-14T05:58:46;18.08;;;3.17;;
71667;SDS011;59504;54.806;9.640;2023-03-14T06:00:53;20.40;;;2.88;;
71667;SDS011;59504;54.806;9.640;2023-03-14T06:02:56;18.17;;;3.35;;
71667;SDS011;59504;54.806;9.640;2023-03-14T06:04:57;21.52;;;4.03;;
71667;SDS011;59504;54.806;9.640;2023-03-14T06:07:08;19.85;;;3.58;;
71667;SDS011;59504;54.806;9.640;2023-03-14T06:09:08;20.52;;;4.13;;
71667;SDS011;59504;54.806;9.640;2023-03-14T06:11:11;21.48;;;3.33;;
71667;SDS011;59504;54.806;9.640;2023-03-14T06:13:13;25.58;;;4.28;;
71667;SDS011;59504;54.806;9.640;2023-03-14T06:15:35;20.23;;;3.60;;
71667;SDS011;59504;54.806;9.640;2023-03-14T06:17:56;21.95;;;4.85;;
71667;SDS011;59504;54.806;9.640;2023-03-14T06:20:19;16.05;;;3.95;;
71667;SDS011;59504;54.806;9.640;2023-03-14T06:22:40;28.73;;;3.58;;
71667;SDS011;59504;54.806;9.640;2023-03-14T06:25:02;21.25;;;3.67;;
71667;SDS011;59504;54.806;9.640;2023-03-14T06:27:23;18.50;;;3.70;;
71667;SDS011;59504;54.806;9.640;2023-03-14T06:29:44;18.80;;;3.20;;
71667;SDS011;59504;54.806;9.640;2023-03-14T06:32:04;13.68;;;2.97;;
71667;SDS011;59504;54.806;9.640;2023-03-14T06:34:05;14.18;;;3.22;;
71667;SDS011;59504;54.806;9.640;2023-03-14T06:36:06;21.98;;;3.65;;
71667;SDS011;59504;54.806;9.640;2023-03-14T06:38:07;16.58;;;2.55;;
71667;SDS011;59504;54.806;9.640;2023-03-14T06:40:08;16.65;;;3.20;;
71667;SDS011;59504;54.806;9.640;2023-03-14T06:42:14;19.40;;;3.25;;
71667;SDS011;59504;54.806;9.640;2023-03-14T06:44:15;16.38;;;3.40;;
71667;SDS011;59504;54.806;9.640;2023-03-14T06:46:16;13.43;;;2.78;;
71667;SDS011;59504;54.806;9.640;2023-03-14T06:48:16;11.85;;;2.50;;
71667;SDS011;59504;54.806;9.640;2023-03-14T06:50:19;13.13;;;1.88;;
71667;SDS011;59504;54.806;9.640;2023-03-14T06:52:19;13.95;;;2.25;;
71667;SDS011;59504;54.806;9.640;2023-03-14T06:54:20;12.63;;;2.97;;
71667;SDS011;59504;54.806;9.640;2023-03-14T06:56:21;10.02;;;2.22;;
71667;SDS011;59504;54.806;9.640;2023-03-14T06:58:21;10.00;;;2.22;;
71667;SDS011;59504;54.806;9.640;2023-03-14T07:00:22;7.90;;;1.73;;
71667;SDS011;59504;54.806;9.640;2023-03-14T07:02:23;8.65;;;1.83;;
71667;SDS011;59504;54.806;9.640;2023-03-14T07:04:36;7.65;;;1.67;;
71667;SDS011;59504;54.806;9.640;2023-03-14T07:06:57;6.60;;;1.40;;
71667;SDS011;59504;54.806;9.640;2023-03-14T07:09:18;3.88;;;1.13;;
71667;SDS011;59504;54.806;9.640;2023-03-14T07:11:18;12.77;;;1.63;;
71667;SDS011;59504;54.806;9.640;2023-03-14T07:13:39;6.38;;;1.35;;
71667;SDS011;59504;54.806;9.640;2023-03-14T07:16:00;11.45;;;1.58;;
71667;SDS011;59504;54.806;9.640;2023-03-14T07:18:21;4.72;;;0.80;;
71667;SDS011;59504;54.806;9.640;2023-03-14T07:20:41;3.35;;;0.60;;
71667;SDS011;59504;54.806;9.640;2023-03-14T07:23:02;3.03;;;0.70;;
71667;SDS011;59504;54.806;9.640;2023-03-14T07:25:23;2.35;;;0.57;;
71667;SDS011;59504;54.806;9.640;2023-03-14T07:27:26;5.65;;;0.50;;
71667;SDS011;59504;54.806;9.640;2023-03-14T07:29:27;1.38;;;0.35;;
71667;SDS011;59504;54.806;9.640;2023-03-14T07:31:28;4.85;;;0.63;;
71667;SDS011;59504;54.806;9.640;2023-03-14T07:33:50;1.30;;;0.30;;
71667;SDS011;59504;54.806;9.640;2023-03-14T07:36:11;2.65;;;0.60;;
71667;SDS011;59504;54.806;9.640;2023-03-14T07:38:31;3.30;;;0.85;;
71667;SDS011;59504;54.806;9.640;2023-03-14T07:40:32;2.97;;;0.70;;
71667;SDS011;59504;54.806;9.640;2023-03-14T07:42:56;1.83;;;0.47;;
71667;SDS011;59504;54.806;9.640;2023-03-14T07:45:17;1.48;;;0.50;;
71667;SDS011;59504;54.806;9.640;2023-03-14T07:47:23;3.85;;;0.63;;
71667;SDS011;59504;54.806;9.640;2023-03-14T07:49:37;4.22;;;0.80;;
71667;SDS011;59504;54.806;9.640;2023-03-14T07:52:00;5.63;;;0.82;;
71667;SDS011;59504;54.806;9.640;2023-03-14T07:54:21;3.53;;;0.70;;
71667;SDS011;59504;54.806;9.640;2023-03-14T07:56:42;4.10;;;0.68;;
71667;SDS011;59504;54.806;9.640;2023-03-14T07:59:03;5.25;;;0.73;;
71667;SDS011;59504;54.806;9.640;2023-03-14T08:01:24;6.93;;;1.15;;
71667;SDS011;59504;54.806;9.640;2023-03-14T08:03:45;4.05;;;0.65;;
71667;SDS011;59504;54.806;9.640;2023-03-14T08:06:06;7.50;;;0.80;;
71667;SDS011;59504;54.806;9.640;2023-03-14T08:08:27;7.95;;;0.95;;
71667;SDS011;59504;54.806;9.640;2023-03-14T08:10:47;10.20;;;1.35;;
71667;SDS011;59504;54.806;9.640;2023-03-14T08:13:08;8.32;;;1.27;;
71667;SDS011;59504;54.806;9.640;2023-03-14T08:15:10;6.78;;;1.15;;
71667;SDS011;59504;54.806;9.640;2023-03-14T08:17:11;6.53;;;0.82;;
71667;SDS011;59504;54.806;9.640;2023-03-14T08:19:12;9.15;;;1.48;;
71667;SDS011;59504;54.806;9.640;2023-03-14T08:21:12;9.23;;;1.02;;
71667;SDS011;59504;54.806;9.640;2023-03-14T08:23:13;3.85;;;1.15;;
71667;SDS011;59504;54.806;9.640;2023-03-14T08:25:14;6.57;;;0.80;;
71667;SDS011;59504;54.806;9.640;2023-03-14T08:27:15;6.15;;;1.00;;
71667;SDS011;59504;54.806;9.640;2023-03-14T08:29:16;5.97;;;1.02;;
71667;SDS011;59504;54.806;9.640;2023-03-14T08:31:17;4.22;;;0.63;;
71667;SDS011;59504;54.806;9.640;2023-03-14T08:33:17;6.50;;;0.77;;
71667;SDS011;59504;54.806;9.640;2023-03-14T08:35:18;7.80;;;0.82;;
71667;SDS011;59504;54.806;9.640;2023-03-14T08:37:19;2.00;;;0.77;;
71667;SDS011;59504;54.806;9.640;2023-03-14T08:39:20;3.45;;;0.68;;
71667;SDS011;59504;54.806;9.640;2023-03-14T08:41:20;4.50;;;0.70;;
71667;SDS011;59504;54.806;9.640;2023-03-14T08:43:21;3.50;;;0.55;;
71667;SDS011;59504;54.806;9.640;2023-03-14T08:45:28;2.97;;;0.55;;
71667;SDS011;59504;54.806;9.640;2023-03-14T08:47:28;2.80;;;0.68;;
71667;SDS011;59504;54.806;9.640;2023-03-14T08:49:29;4.07;;;0.50;;
71667;SDS011;59504;54.806;9.640;2023-03-14T08:51:30;1.73;;;0.70;;
71667;SDS011;59504;54.806;9.640;2023-03-14T08:53:31;3.10;;;0.63;;
71667;SDS011;59504;54.806;9.640;2023-03-14T08:55:31;2.45;;;0.70;;
71667;SDS011;59504;54.806;9.640;2023-03-14T08:57:32;2.17;;;0.50;;
71667;SDS011;59504;54.806;9.640;2023-03-14T08:59:33;1.75;;;0.50;;
71667;SDS011;59504;54.806;9.640;2023-03-14T09:01:33;1.73;;;0.77;;
71667;SDS011;59504;54.806;9.640;2023-03-14T09:03:36;2.72;;;0.52;;
71667;SDS011;59504;54.806;9.640;2023-03-14T09:05:50;1.15;;;0.50;;
71667;SDS011;59504;54.806;9.640;2023-03-14T09:08:03;3.88;;;0.80;;
71667;SDS011;59504;54.806;9.640;2023-03-14T09:10:24;5.00;;;0.63;;
71667;SDS011;59504;54.806;9.640;2023-03-14T09:12:45;5.47;;;0.77;;
71667;SDS011;59504;54.806;9.640;2023-03-14T09:15:05;6.90;;;1.30;;
71667;SDS011;59504;54.806;9.640;2023-03-14T09:17:27;4.10;;;0.75;;
71667;SDS011;59504;54.806;9.640;2023-03-14T09:19:48;6.53;;;0.88;;
71667;SDS011;59504;54.806;9.640;2023-03-14T09:22:08;7.22;;;1.13;;
71667;SDS011;59504;54.806;9.640;2023-03-14T09:24:23;7.75;;;0.95;;
71667;SDS011;59504;54.806;9.640;2023-03-14T09:26:43;7.75;;;1.27;;
71667;SDS011;59504;54.806;9.640;2023-03-14T09:29:04;4.97;;;0.90;;
71667;SDS011;59504;54.806;9.640;2023-03-14T09:31:07;7.85;;;1.58;;
71667;SDS011;59504;54.806;9.640;2023-03-14T09:33:29;8.30;;;0.98;;
71667;SDS011;59504;54.806;9.640;2023-03-14T09:35:49;8.13;;;0.93;;
71667;SDS011;59504;54.806;9.640;2023-03-14T09:38:10;9.23;;;1.10;;
71667;SDS011;59504;54.806;9.640;2023-03-14T09:40:31;10.95;;;1.35;;
71667;SDS011;59504;54.806;9.640;2023-03-14T09:45:18;10.98;;;1.30;;
71667;SDS011;59504;54.806;9.640;2023-03-14T09:47:51;10.90;;;1.25;;
71667;SDS011;59504;54.806;9.640;2023-03-14T09:50:13;5.55;;;1.00;;
71667;SDS011;59504;54.806;9.640;2023-03-14T09:52:35;9.32;;;0.95;;
71667;SDS011;59504;54.806;9.640;2023-03-14T09:54:42;6.38;;;1.23;;
71667;SDS011;59504;54.806;9.640;2023-03-14T09:56:52;4.85;;;0.85;;
71667;SDS011;59504;54.806;9.640;2023-03-14T09:58:54;9.52;;;1.63;;
71667;SDS011;59504;54.806;9.640;2023-03-14T10:00:59;9.90;;;1.55;;
71667;SDS011;59504;54.806;9.640;2023-03-14T10:05:23;6.93;;;1.35;;
71667;SDS011;59504;54.806;9.640;2023-03-14T10:07:27;5.88;;;1.10;;
71667;SDS011;59504;54.806;9.640;2023-03-14T10:09:29;12.50;;;1.40;;
71667;SDS011;59504;54.806;9.640;2023-03-14T10:11:30;12.40;;;1.45;;
71667;SDS011;59504;54.806;9.640;2023-03-14T10:13:31;8.48;;;1.42;;
71667;SDS011;59504;54.806;9.640;2023-03-14T10:15:32;15.45;;;1.38;;
71667;SDS011;59504;54.806;9.640;2023-03-14T10:17:49;8.00;;;1.30;;
71667;SDS011;59504;54.806;9.640;2023-03-14T10:19:52;13.88;;;1.50;;
71667;SDS011;59504;54.806;9.640;2023-03-14T10:21:53;8.67;;;1.27;;
71667;SDS011;59504;54.806;9.640;2023-03-14T10:23:54;12.63;;;1.60;;
71667;SDS011;59504;54.806;9.640;2023-03-14T10:26:17;7.68;;;1.42;;
71667;SDS011;59504;54.806;9.640;2023-03-14T10:28:26;9.23;;;1.20;;
71667;SDS011;59504;54.806;9.640;2023-03-14T10:30:28;12.45;;;1.42;;
71667;SDS011;59504;54.806;9.640;2023-03-14T10:32:37;17.48;;;1.77;;
71667;SDS011;59504;54.806;9.640;2023-03-14T10:34:41;13.40;;;1.63;;
71667;SDS011;59504;54.806;9.640;2023-03-14T10:36:42;12.88;;;1.50;;
71667;SDS011;59504;54.806;9.640;2023-03-14T10:41:30;11.88;;;1.30;;
71667;SDS011;59504;54.806;9.640;2023-03-14T10:43:54;13.60;;;2.03;;
71667;SDS011;59504;54.806;9.640;2023-03-14T10:46:00;14.50;;;2.20;;
71667;SDS011;59504;54.806;9.640;2023-03-14T10:48:30;19.38;;;2.05;;
71667;SDS011;59504;54.806;9.640;2023-03-14T10:51:03;22.15;;;1.98;;
71667;SDS011;59504;54.806;9.640;2023-03-14T10:53:29;16.67;;;2.03;;
71667;SDS011;59504;54.806;9.640;2023-03-14T10:55:58;16.63;;;1.98;;
71667;SDS011;59504;54.806;9.640;2023-03-14T10:58:24;17.48;;;2.17;;
71667;SDS011;59504;54.806;9.640;2023-03-14T11:00:51;10.77;;;1.52;;
71667;SDS011;59504;54.806;9.640;2023-03-14T11:03:37;19.85;;;2.17;;
71667;SDS011;59504;54.806;9.640;2023-03-14T11:10:48;18.73;;;1.80;;
71667;SDS011;59504;54.806;9.640;2023-03-14T11:13:00;19.13;;;2.00;;
71667;SDS011;59504;54.806;9.640;2023-03-14T11:15:28;18.90;;;1.80;;
71667;SDS011;59504;54.806;9.640;2023-03-14T11:17:59;15.70;;;1.92;;
71667;SDS011;59504;54.806;9.640;2023-03-14T11:24:49;19.17;;;1.70;;
71667;SDS011;59504;54.806;9.640;2023-03-14T11:31:54;17.48;;;2.30;;
71667;SDS011;59504;54.806;9.640;2023-03-14T11:36:27;9.32;;;1.55;;
71667;SDS011;59504;54.806;9.640;2023-03-14T11:40:42;12.35;;;2.03;;
71667;SDS011;59504;54.806;9.640;2023-03-14T11:42:46;16.10;;;2.17;;
71667;SDS011;59504;54.806;9.640;2023-03-14T11:45:42;19.42;;;2.38;;
71667;SDS011;59504;54.806;9.640;2023-03-14T11:47:39;17.10;;;2.33;;
71667;SDS011;59504;54.806;9.640;2023-03-14T11:50:09;16.70;;;1.52;;
71667;SDS011;59504;54.806;9.640;2023-03-14T11:52:23;18.38;;;2.28;;
71667;SDS011;59504;54.806;9.640;2023-03-14T11:56:46;18.70;;;2.00;;
71667;SDS011;59504;54.806;9.640;2023-03-14T11:59:24;15.18;;;1.75;;
71667;SDS011;59504;54.806;9.640;2023-03-14T12:02:09;20.90;;;2.85;;
71667;SDS011;59504;54.806;9.640;2023-03-14T12:07:41;16.55;;;1.70;;
71667;SDS011;59504;54.806;9.640;2023-03-14T12:10:23;13.07;;;1.55;;
71667;SDS011;59504;54.806;9.640;2023-03-14T12:12:45;13.32;;;1.52;;
71667;SDS011;59504;54.806;9.640;2023-03-14T12:15:15;12.18;;;1.77;;
71667;SDS011;59504;54.806;9.640;2023-03-14T12:17:40;20.65;;;2.05;;
71667;SDS011;59504;54.806;9.640;2023-03-14T12:19:47;12.25;;;1.73;;
71667;SDS011;59504;54.806;9.640;2023-03-14T12:22:23;13.45;;;2.35;;
71667;SDS011;59504;54.806;9.640;2023-03-14T12:24:57;13.85;;;1.90;;
71667;SDS011;59504;54.806;9.640;2023-03-14T12:27:41;15.02;;;1.50;;
71667;SDS011;59504;54.806;9.640;2023-03-14T12:30:26;11.27;;;1.17;;
71667;SDS011;59504;54.806;9.640;2023-03-14T12:38:03;13.23;;;1.80;;
71667;SDS011;59504;54.806;9.640;2023-03-14T12:40:31;9.98;;;1.17;;
71667;SDS011;59504;54.806;9.640;2023-03-14T12:42:59;26.90;;;2.95;;
71667;SDS011;59504;54.806;9.640;2023-03-14T12:45:23;19.05;;;1.92;;
71667;SDS011;59504;54.806;9.640;2023-03-14T12:47:50;17.25;;;2.08;;
71667;SDS011;59504;54.806;9.640;2023-03-14T12:50:42;19.90;;;2.03;;
71667;SDS011;59504;54.806;9.640;2023-03-14T13:01:02;17.63;;;2.17;;
71667;SDS011;59504;54.806;9.640;2023-03-14T13:03:26;11.85;;;1.60;;
71667;SDS011;59504;54.806;9.640;2023-03-14T13:05:58;9.95;;;1.52;;
71667;SDS011;59504;54.806;9.640;2023-03-14T13:08:35;8.38;;;1.30;;
71667;SDS011;59504;54.806;9.640;2023-03-14T13:11:01;5.47;;;1.33;;
71667;SDS011;59504;54.806;9.640;2023-03-14T13:13:25;16.02;;;1.60;;
71667;SDS011;59504;54.806;9.640;2023-03-14T13:15:48;12.60;;;1.17;;
71667;SDS011;59504;54.806;9.640;2023-03-14T13:18:15;9.73;;;1.55;;
71667;SDS011;59504;54.806;9.640;2023-03-14T13:20:55;14.68;;;1.67;;
71667;SDS011;59504;54.806;9.640;2023-03-14T13:23:26;12.20;;;1.50;;
71667;SDS011;59504;54.806;9.640;2023-03-14T13:25:49;14.00;;;1.60;;
71667;SDS011;59504;54.806;9.640;2023-03-14T13:28:10;10.23;;;1.38;;
71667;SDS011;59504;54.806;9.640;2023-03-14T13:30:41;11.07;;;1.48;;
71667;SDS011;59504;54.806;9.640;2023-03-14T13:33:04;12.73;;;1.42;;
71667;SDS011;59504;54.806;9.640;2023-03-14T13:35:25;9.95;;;1.70;;
71667;SDS011;59504;54.806;9.640;2023-03-14T13:37:46;11.35;;;1.52;;
71667;SDS011;59504;54.806;9.640;2023-03-14T13:40:28;13.05;;;1.73;;
71667;SDS011;59504;54.806;9.640;2023-03-14T13:43:03;11.13;;;1.48;;
71667;SDS011;59504;54.806;9.640;2023-03-14T13:45:30;8.85;;;1.17;;
71667;SDS011;59504;54.806;9.640;2023-03-14T13:47:51;8.60;;;1.45;;
71667;SDS011;59504;54.806;9.640;2023-03-14T13:50:16;13.23;;;1.63;;
71667;SDS011;59504;54.806;9.640;2023-03-14T13:52:37;12.55;;;1.75;;
71667;SDS011;59504;54.806;9.640;2023-03-14T13:54:57;13.02;;;1.45;;
71667;SDS011;59504;54.806;9.640;2023-03-14T13:57:18;7.68;;;1.33;;
71667;SDS011;59504;54.806;9.640;2023-03-14T13:59:37;8.38;;;1.52;;
71667;SDS011;59504;54.806;9.640;2023-03-14T14:01:57;12.10;;;1.30;;
71667;SDS011;59504;54.806;9.640;2023-03-14T14:04:19;7.60;;;1.20;;
71667;SDS011;59504;54.806;9.640;2023-03-14T14:06:57;11.40;;;1.50;;
71667;SDS011;59504;54.806;9.640;2023-03-14T14:12:11;6.72;;;1.73;;
71667;SDS011;59504;54.806;9.640;2023-03-14T14:16:57;10.10;;;1.10;;
71667;SDS011;59504;54.806;9.640;2023-03-14T14:19:19;9.55;;;1.05;;
71667;SDS011;59504;54.806;9.640;2023-03-14T14:21:41;7.03;;;0.95;;
71667;SDS011;59504;54.806;9.640;2023-03-14T14:24:01;4.85;;;1.13;;
71667;SDS011;59504;54.806;9.640;2023-03-14T14:26:21;10.20;;;1.27;;
71667;SDS011;59504;54.806;9.640;2023-03-14T14:28:40;8.15;;;1.20;;
71667;SDS011;59504;54.806;9.640;2023-03-14T14:33:39;10.43;;;1.67;;
71667;SDS011;59504;54.806;9.640;2023-03-14T14:36:19;9.85;;;1.17;;
71667;SDS011;59504;54.806;9.640;2023-03-14T14:38:41;8.82;;;1.70;;
71667;SDS011;59504;54.806;9.640;2023-03-14T14:41:03;15.43;;;1.67;;
71667;SDS011;59504;54.806;9.640;2023-03-14T14:43:23;16.35;;;1.98;;
71667;SDS011;59504;54.806;9.640;2023-03-14T14:45:49;16.67;;;2.03;;
71667;SDS011;59504;54.806;9.640;2023-03-14T14:48:11;11.45;;;1.63;;
71667;SDS011;59504;54.806;9.640;2023-03-14T14:53:42;13.48;;;1.75;;
71667;SDS011;59504;54.806;9.640;2023-03-14T14:56:26;16.55;;;1.30;;
71667;SDS011;59504;54.806;9.640;2023-03-14T15:01:11;21.27;;;2.03;;
71667;SDS011;59504;54.806;9.640;2023-03-14T15:03:32;12.52;;;1.50;;
71667;SDS011;59504;54.806;9.640;2023-03-14T15:05:53;15.25;;;1.67;;
71667;SDS011;59504;54.806;9.640;2023-03-14T15:08:14;16.08;;;1.77;;
71667;SDS011;59504;54.806;9.640;2023-03-14T15:10:33;11.57;;;1.20;;
71667;SDS011;59504;54.806;9.640;2023-03-14T15:12:55;14.43;;;1.65;;
71667;SDS011;59504;54.806;9.640;2023-03-14T15:15:15;14.13;;;1.75;;
71667;SDS011;59504;54.806;9.640;2023-03-14T15:17:35;9.15;;;1.80;;
71667;SDS011;59504;54.806;9.640;2023-03-14T15:19:56;14.63;;;1.63;;
71667;SDS011;59504;54.806;9.640;2023-03-14T15:22:17;12.38;;;1.45;;
71667;SDS011;59504;54.806;9.640;2023-03-14T15:24:39;12.95;;;1.58;;
71667;SDS011;59504;54.806;9.640;2023-03-14T15:26:59;11.70;;;1.40;;
71667;SDS011;59504;54.806;9.640;2023-03-14T15:29:19;5.70;;;1.00;;
71667;SDS011;59504;54.806;9.640;2023-03-14T15:31:38;11.65;;;1.02;;
71667;SDS011;59504;54.806;9.640;2023-03-14T15:33:59;12.18;;;1.73;;
71667;SDS011;59504;54.806;9.640;2023-03-14T15:36:21;10.30;;;1.42;;
71667;SDS011;59504;54.806;9.640;2023-03-14T15:38:49;9.68;;;1.55;;
71667;SDS011;59504;54.806;9.640;2023-03-14T15:41:09;6.80;;;1.20;;
71667;SDS011;59504;54.806;9.640;2023-03-14T15:43:28;18.20;;;2.17;;
71667;SDS011;59504;54.806;9.640;2023-03-14T15:45:47;13.63;;;2.00;;